createdAt,value
2018-11-02T00:00:07.484Z,7.33
2018-11-02T00:01:06.749Z,7.34
2018-11-02T00:02:08.494Z,7.34
2018-11-02T00:03:06.791Z,7.33
2018-11-02T00:04:07.157Z,7.31
2018-11-02T00:05:06.640Z,7.32
2018-11-02T00:06:07.252Z,7.33
2018-11-02T00:07:06.831Z,7.31
2018-11-02T00:08:06.655Z,7.27
2018-11-02T00:09:06.730Z,7.28
2018-11-02T00:10:06.841Z,7.3
2018-11-02T00:11:06.837Z,7.27
2018-11-02T00:12:08.574Z,7.26
2018-11-02T00:13:06.884Z,7.27
2018-11-02T00:14:06.793Z,7.27
2018-11-02T00:15:06.650Z,7.28
2018-11-02T00:16:06.648Z,7.25
2018-11-02T00:17:06.808Z,7.25
2018-11-02T00:18:07.051Z,7.23
2018-11-02T00:19:06.675Z,7.23
2018-11-02T00:20:07.071Z,7.21
2018-11-02T00:21:06.886Z,7.2
2018-11-02T00:22:07.671Z,7.2
2018-11-02T00:23:06.732Z,7.2
2018-11-02T00:24:06.843Z,7.22
2018-11-02T00:25:06.665Z,7.21
2018-11-02T00:26:06.727Z,7.26
2018-11-02T00:27:06.875Z,7.24
2018-11-02T00:28:06.746Z,7.23
2018-11-02T00:29:06.829Z,7.21
2018-11-02T00:30:06.746Z,7.23
2018-11-02T00:31:06.908Z,7.29
2018-11-02T00:32:08.085Z,7.29
2018-11-02T00:33:06.979Z,7.27
2018-11-02T00:34:06.717Z,7.27
2018-11-02T00:35:06.722Z,7.25
2018-11-02T00:36:06.839Z,7.21
2018-11-02T00:37:06.859Z,7.2
2018-11-02T00:38:06.899Z,7.22
2018-11-02T00:39:07.009Z,7.19
2018-11-02T00:40:06.671Z,7.2
2018-11-02T00:41:06.953Z,7.22
2018-11-02T00:42:06.691Z,7.12
2018-11-02T00:43:08.477Z,7.2
2018-11-02T00:44:07.671Z,7.18
2018-11-02T00:45:06.682Z,7.22
2018-11-02T00:46:06.828Z,7.21
2018-11-02T00:47:06.862Z,7.22
2018-11-02T00:48:06.708Z,7.19
2018-11-02T00:49:06.770Z,7.2
2018-11-02T00:50:06.904Z,7.19
2018-11-02T00:51:06.746Z,7.17
2018-11-02T00:52:06.693Z,7.17
2018-11-02T00:53:07.825Z,7.17
2018-11-02T00:54:06.711Z,7.13
2018-11-02T00:55:06.987Z,7.11
2018-11-02T00:56:06.615Z,7.11
2018-11-02T00:57:06.665Z,7.12
2018-11-02T00:58:06.602Z,7.1
2018-11-02T00:59:06.739Z,7.12
2018-11-02T01:00:06.949Z,7.1
2018-11-02T01:01:06.970Z,7.1
2018-11-02T01:02:06.708Z,7.12
2018-11-02T01:03:07.045Z,7.1
2018-11-02T01:04:07.018Z,7.15
2018-11-02T01:05:06.612Z,7.15
2018-11-02T01:06:06.604Z,7.16
2018-11-02T01:07:06.599Z,7.15
2018-11-02T01:08:06.628Z,7.16
2018-11-02T01:09:06.810Z,7.14
2018-11-02T01:10:06.584Z,7.13
2018-11-02T01:11:06.611Z,7.16
2018-11-02T01:12:06.598Z,7.16
2018-11-02T01:13:07.196Z,7.15
2018-11-02T01:14:06.567Z,7.17
2018-11-02T01:15:06.635Z,7.17
2018-11-02T01:16:06.552Z,7.15
2018-11-02T01:17:06.630Z,7.13
2018-11-02T01:18:06.552Z,7.13
2018-11-02T01:19:06.742Z,7.11
2018-11-02T01:20:06.583Z,7.12
2018-11-02T01:21:06.705Z,7.12
2018-11-02T01:22:06.749Z,7.16
2018-11-02T01:23:06.560Z,7.17
2018-11-02T01:24:06.550Z,7.13
2018-11-02T01:25:06.608Z,7.13
2018-11-02T01:26:06.658Z,7.12
2018-11-02T01:27:06.792Z,7.11
2018-11-02T01:28:06.572Z,7.1
2018-11-02T01:29:06.730Z,7.1
2018-11-02T01:30:06.787Z,7.09
2018-11-02T01:31:06.862Z,7.09
2018-11-02T01:32:06.830Z,7.1
2018-11-02T01:33:06.626Z,7.09
2018-11-02T01:34:08.428Z,7.07
2018-11-02T01:35:06.578Z,7.1
2018-11-02T01:36:06.585Z,7.07
2018-11-02T01:37:06.597Z,7.06
2018-11-02T01:38:06.883Z,7.07
2018-11-02T01:39:06.540Z,7.08
2018-11-02T01:40:06.587Z,7.07
2018-11-02T01:41:06.637Z,7.04
2018-11-02T01:42:06.681Z,7.04
2018-11-02T01:43:06.709Z,7.01
2018-11-02T01:44:08.386Z,6.99
2018-11-02T01:45:06.638Z,6.99
2018-11-02T01:46:06.625Z,7
2018-11-02T01:47:06.569Z,6.97
2018-11-02T01:48:06.538Z,6.97
2018-11-02T01:49:06.545Z,6.97
2018-11-02T01:50:06.521Z,6.94
2018-11-02T01:51:06.922Z,6.94
2018-11-02T01:52:07.344Z,6.95
2018-11-02T01:53:06.965Z,6.96
2018-11-02T01:54:07.494Z,6.95
2018-11-02T01:55:06.542Z,6.96
2018-11-02T01:56:06.518Z,6.95
2018-11-02T01:57:06.491Z,6.95
2018-11-02T01:58:06.706Z,6.95
2018-11-02T01:59:06.598Z,6.94
2018-11-02T02:00:06.539Z,6.96
2018-11-02T02:01:06.569Z,7
2018-11-02T02:02:06.489Z,6.99
2018-11-02T02:03:06.658Z,7.02
2018-11-02T02:04:06.539Z,7.04
2018-11-02T02:05:06.527Z,7.03
2018-11-02T02:06:06.494Z,7
2018-11-02T02:07:07.312Z,6.97
2018-11-02T02:08:06.532Z,6.98
2018-11-02T02:09:06.585Z,6.97
2018-11-02T02:10:06.541Z,6.97
2018-11-02T02:11:07.275Z,6.95
2018-11-02T02:12:06.525Z,6.96
2018-11-02T02:13:07.206Z,6.97
2018-11-02T02:14:06.576Z,6.98
2018-11-02T02:15:08.087Z,6.99
2018-11-02T02:16:06.685Z,6.98
2018-11-02T02:17:06.866Z,6.97
2018-11-02T02:18:06.587Z,6.97
2018-11-02T02:19:06.666Z,6.98
2018-11-02T02:20:06.584Z,6.98
2018-11-02T02:21:06.538Z,6.98
2018-11-02T02:22:06.500Z,6.97
2018-11-02T02:23:06.589Z,6.95
2018-11-02T02:24:06.615Z,6.99
2018-11-02T02:25:07.564Z,7.03
2018-11-02T02:26:06.842Z,7.02
2018-11-02T02:27:06.573Z,7.04
2018-11-02T02:28:06.480Z,7.06
2018-11-02T02:29:06.617Z,7.08
2018-11-02T02:30:06.715Z,7.11
2018-11-02T02:31:06.587Z,7.08
2018-11-02T02:32:06.645Z,7.1
2018-11-02T02:33:06.434Z,7.09
2018-11-02T02:34:06.882Z,7.1
2018-11-02T02:35:06.682Z,7.09
2018-11-02T02:36:06.628Z,7.1
2018-11-02T02:37:06.597Z,7.09
2018-11-02T02:38:06.709Z,7.08
2018-11-02T02:39:06.448Z,7.06
2018-11-02T02:40:06.832Z,7.04
2018-11-02T02:41:06.751Z,7.06
2018-11-02T02:42:06.432Z,7.05
2018-11-02T02:43:06.424Z,7.04
2018-11-02T02:44:06.898Z,7.02
2018-11-02T02:45:06.467Z,7.02
2018-11-02T02:46:06.441Z,7.04
2018-11-02T02:47:06.485Z,7.04
2018-11-02T02:48:06.499Z,7.04
2018-11-02T02:49:06.592Z,7.01
2018-11-02T02:50:06.603Z,6.98
2018-11-02T02:51:06.449Z,6.97
2018-11-02T02:52:06.423Z,6.94
2018-11-02T02:53:06.490Z,6.93
2018-11-02T02:54:06.431Z,6.92
2018-11-02T02:55:06.549Z,6.91
2018-11-02T02:56:08.261Z,6.93
2018-11-02T02:57:06.432Z,6.91
2018-11-02T02:58:06.661Z,6.91
2018-11-02T02:59:06.453Z,6.91
2018-11-02T03:00:06.465Z,6.9
2018-11-02T03:01:06.845Z,6.88
2018-11-02T03:02:06.654Z,6.88
2018-11-02T03:03:06.747Z,6.87
2018-11-02T03:04:06.541Z,6.87
2018-11-02T03:05:06.581Z,6.86
2018-11-02T03:06:08.160Z,6.86
2018-11-02T03:07:06.426Z,6.86
2018-11-02T03:08:06.655Z,6.85
2018-11-02T03:09:06.570Z,6.86
2018-11-02T03:10:06.530Z,6.86
2018-11-02T03:11:08.713Z,6.88
2018-11-02T03:12:06.557Z,6.88
2018-11-02T03:13:06.472Z,6.9
2018-11-02T03:14:06.409Z,6.9
2018-11-02T03:15:06.528Z,6.9
2018-11-02T03:16:07.832Z,6.92
2018-11-02T03:17:06.389Z,6.92
2018-11-02T03:18:06.740Z,6.91
2018-11-02T03:19:06.443Z,6.92
2018-11-02T03:20:06.576Z,6.9
2018-11-02T03:21:06.442Z,6.93
2018-11-02T03:22:06.559Z,6.93
2018-11-02T03:23:06.365Z,6.95
2018-11-02T03:24:06.489Z,6.96
2018-11-02T03:25:06.828Z,6.98
2018-11-02T03:26:08.058Z,6.98
2018-11-02T03:27:06.452Z,6.96
2018-11-02T03:28:06.466Z,6.98
2018-11-02T03:29:06.432Z,6.99
2018-11-02T03:30:06.740Z,6.99
2018-11-02T03:31:06.684Z,6.98
2018-11-02T03:32:06.796Z,6.99
2018-11-02T03:33:06.506Z,6.99
2018-11-02T03:34:06.509Z,7.01
2018-11-02T03:35:06.398Z,7.01
2018-11-02T03:36:08.025Z,7.04
2018-11-02T03:37:06.394Z,7.04
2018-11-02T03:38:06.429Z,7.05
2018-11-02T03:39:06.514Z,7.02
2018-11-02T03:40:06.524Z,7.04
2018-11-02T03:41:06.421Z,7.01
2018-11-02T03:42:06.356Z,7.01
2018-11-02T03:43:06.386Z,7
2018-11-02T03:44:06.412Z,7.02
2018-11-02T03:45:06.369Z,7.02
2018-11-02T03:46:08.094Z,7
2018-11-02T03:47:06.493Z,7.01
2018-11-02T03:48:06.418Z,7.04
2018-11-02T03:49:06.609Z,7.07
2018-11-02T03:50:06.444Z,7.07
2018-11-02T03:51:06.503Z,7.09
2018-11-02T03:52:06.466Z,7.1
2018-11-02T03:53:06.484Z,7.1
2018-11-02T03:54:06.350Z,7.1
2018-11-02T03:55:06.478Z,7.1
2018-11-02T03:56:07.339Z,7.14
2018-11-02T03:57:06.410Z,7.1
2018-11-02T03:58:06.436Z,7.09
2018-11-02T03:59:06.449Z,7.1
2018-11-02T04:00:06.419Z,7.13
2018-11-02T04:01:06.465Z,7.14
2018-11-02T04:02:06.369Z,7.15
2018-11-02T04:03:06.361Z,7.14
2018-11-02T04:04:06.718Z,7.17
2018-11-02T04:05:06.548Z,7.15
2018-11-02T04:06:06.422Z,7.13
2018-11-02T04:07:06.469Z,7.15
2018-11-02T04:08:06.310Z,7.18
2018-11-02T04:09:06.348Z,7.18
2018-11-02T04:10:06.429Z,7.21
2018-11-02T04:11:06.494Z,7.2
2018-11-02T04:12:06.406Z,7.17
2018-11-02T04:13:06.315Z,7.14
2018-11-02T04:14:06.339Z,7.16
2018-11-02T04:15:06.299Z,7.16
2018-11-02T04:16:06.297Z,7.2
2018-11-02T04:17:06.392Z,7.18
2018-11-02T04:18:06.343Z,7.2
2018-11-02T04:19:06.327Z,7.17
2018-11-02T04:20:06.387Z,7.2
2018-11-02T04:21:06.342Z,7.2
2018-11-02T04:22:06.313Z,7.19
2018-11-02T04:23:06.277Z,7.2
2018-11-02T04:24:06.392Z,7.2
2018-11-02T04:25:06.347Z,7.2
2018-11-02T04:26:06.437Z,7.2
2018-11-02T04:27:08.122Z,7.2
2018-11-02T04:28:06.345Z,7.19
2018-11-02T04:29:06.288Z,7.17
2018-11-02T04:30:06.301Z,7.2
2018-11-02T04:31:07.581Z,7.24
2018-11-02T04:32:06.483Z,7.24
2018-11-02T04:33:06.506Z,7.28
2018-11-02T04:34:06.348Z,7.23
2018-11-02T04:35:06.441Z,7.22
2018-11-02T04:36:06.448Z,7.2
2018-11-02T04:37:07.621Z,7.23
2018-11-02T04:38:06.445Z,7.2
2018-11-02T04:39:06.808Z,7.22
2018-11-02T04:40:06.338Z,7.22
2018-11-02T04:41:06.411Z,7.21
2018-11-02T04:42:06.557Z,7.2
2018-11-02T04:43:06.247Z,7.19
2018-11-02T04:44:06.509Z,7.19
2018-11-02T04:45:06.605Z,7.19
2018-11-02T04:46:06.339Z,7.19
2018-11-02T04:47:06.696Z,7.2
2018-11-02T04:48:06.255Z,7.19
2018-11-02T04:49:06.412Z,7.19
2018-11-02T04:50:06.341Z,7.21
2018-11-02T04:51:07.415Z,7.19
2018-11-02T04:52:06.631Z,7.19
2018-11-02T04:53:06.425Z,7.19
2018-11-02T04:54:06.476Z,7.23
2018-11-02T04:55:06.238Z,7.25
2018-11-02T04:56:07.628Z,7.23
2018-11-02T04:57:06.554Z,7.24
2018-11-02T04:58:06.379Z,7.26
2018-11-02T04:59:06.311Z,7.25
2018-11-02T05:00:06.449Z,7.27
2018-11-02T05:01:06.354Z,7.25
2018-11-02T05:02:06.385Z,7.24
2018-11-02T05:03:06.302Z,7.23
2018-11-02T05:04:06.267Z,7.24
2018-11-02T05:05:06.293Z,7.23
2018-11-02T05:06:06.192Z,7.2
2018-11-02T05:07:06.288Z,7.22
2018-11-02T05:08:09.399Z,7.22
2018-11-02T05:09:06.382Z,7.22
2018-11-02T05:10:06.586Z,7.2
2018-11-02T05:11:06.581Z,7.22
2018-11-02T05:12:06.254Z,7.22
2018-11-02T05:13:06.339Z,7.24
2018-11-02T05:14:06.323Z,7.21
2018-11-02T05:15:06.228Z,7.21
2018-11-02T05:16:06.382Z,7.18
2018-11-02T05:17:06.486Z,7.17
2018-11-02T05:18:07.973Z,7.17
2018-11-02T05:19:06.215Z,7.21
2018-11-02T05:20:06.416Z,7.22
2018-11-02T05:21:06.887Z,7.2
2018-11-02T05:22:06.241Z,7.18
2018-11-02T05:23:06.462Z,7.18
2018-11-02T05:24:06.294Z,7.17
2018-11-02T05:25:06.376Z,7.18
2018-11-02T05:26:07.125Z,7.15
2018-11-02T05:27:06.210Z,7.15
2018-11-02T05:28:07.905Z,7.13
2018-11-02T05:29:06.238Z,7.13
2018-11-02T05:30:06.195Z,7.11
2018-11-02T05:31:06.300Z,7.1
2018-11-02T05:32:06.190Z,7.12
2018-11-02T05:33:06.414Z,7.1
2018-11-02T05:34:06.208Z,7.08
2018-11-02T05:35:06.353Z,7.09
2018-11-02T05:36:06.330Z,7.08
2018-11-02T05:37:06.188Z,7.09
2018-11-02T05:38:06.233Z,7.09
2018-11-02T05:39:06.206Z,7.06
2018-11-02T05:40:06.558Z,7.07
2018-11-02T05:41:06.157Z,7.06
2018-11-02T05:42:06.172Z,7.09
2018-11-02T05:43:06.240Z,7.1
2018-11-02T05:44:06.198Z,7.08
2018-11-02T05:45:06.330Z,7.11
2018-11-02T05:46:06.195Z,7.09
2018-11-02T05:47:06.447Z,7.09
2018-11-02T05:48:06.151Z,7.1
2018-11-02T05:49:06.217Z,7.09
2018-11-02T05:50:06.196Z,7.08
2018-11-02T05:51:06.305Z,7.07
2018-11-02T05:52:06.244Z,7.06
2018-11-02T05:53:06.219Z,7.08
2018-11-02T05:54:07.104Z,7.05
2018-11-02T05:55:06.230Z,7.05
2018-11-02T05:56:06.267Z,7.07
2018-11-02T05:57:06.545Z,7.05
2018-11-02T05:58:06.139Z,7.03
2018-11-02T05:59:08.636Z,7.03
2018-11-02T06:00:06.401Z,7
2018-11-02T06:01:06.142Z,7
2018-11-02T06:02:06.152Z,6.99
2018-11-02T06:03:06.181Z,6.97
2018-11-02T06:04:06.420Z,6.97
2018-11-02T06:05:06.150Z,6.96
2018-11-02T06:06:06.223Z,6.96
2018-11-02T06:07:06.204Z,6.97
2018-11-02T06:08:07.693Z,7
2018-11-02T06:09:07.552Z,7.03
2018-11-02T06:10:06.164Z,7.01
2018-11-02T06:11:06.214Z,7
2018-11-02T06:12:06.260Z,7
2018-11-02T06:13:06.624Z,7.01
2018-11-02T06:14:06.384Z,7.02
2018-11-02T06:15:06.144Z,7.04
2018-11-02T06:16:06.258Z,7.02
2018-11-02T06:17:06.312Z,7.04
2018-11-02T06:18:06.125Z,7.03
2018-11-02T06:19:07.243Z,7.01
2018-11-02T06:20:06.126Z,7.02
2018-11-02T06:21:06.172Z,6.99
2018-11-02T06:22:06.104Z,7
2018-11-02T06:23:06.205Z,7
2018-11-02T06:24:06.660Z,6.99
2018-11-02T06:25:06.155Z,6.98
2018-11-02T06:26:06.105Z,6.98
2018-11-02T06:27:06.119Z,6.96
2018-11-02T06:28:06.531Z,6.95
2018-11-02T06:29:06.253Z,6.92
2018-11-02T06:30:06.095Z,6.87
2018-11-02T06:31:06.177Z,6.87
2018-11-02T06:32:06.245Z,6.83
2018-11-02T06:33:06.181Z,6.85
2018-11-02T06:34:06.270Z,6.85
2018-11-02T06:35:06.077Z,6.86
2018-11-02T06:36:06.140Z,6.86
2018-11-02T06:37:06.273Z,6.87
2018-11-02T06:38:06.359Z,6.86
2018-11-02T06:39:06.267Z,6.85
2018-11-02T06:40:07.948Z,6.85
2018-11-02T06:41:06.313Z,6.84
2018-11-02T06:42:06.185Z,6.82
2018-11-02T06:43:06.705Z,6.8
2018-11-02T06:44:06.323Z,6.79
2018-11-02T06:45:07.334Z,6.8
2018-11-02T06:46:06.140Z,6.81
2018-11-02T06:47:06.083Z,6.8
2018-11-02T06:48:06.167Z,6.8
2018-11-02T06:49:06.127Z,6.82
2018-11-02T06:50:06.419Z,6.82
2018-11-02T06:51:07.474Z,6.83
2018-11-02T06:52:06.054Z,6.82
2018-11-02T06:53:06.222Z,6.81
2018-11-02T06:54:06.245Z,6.79
2018-11-02T06:55:06.499Z,6.79
2018-11-02T06:56:06.144Z,6.82
2018-11-02T06:57:06.394Z,6.82
2018-11-02T06:58:06.229Z,6.81
2018-11-02T06:59:07.189Z,6.82
2018-11-02T07:00:08.878Z,6.82
2018-11-02T07:01:07.237Z,6.81
2018-11-02T07:02:06.226Z,6.83
2018-11-02T07:03:06.068Z,6.8
2018-11-02T07:04:06.076Z,6.82
2018-11-02T07:05:06.270Z,6.8
2018-11-02T07:06:06.241Z,6.83
2018-11-02T07:07:06.936Z,6.82
2018-11-02T07:08:08.138Z,6.85
2018-11-02T07:09:06.273Z,6.85
2018-11-02T07:10:06.085Z,6.84
2018-11-02T07:11:07.824Z,6.87
2018-11-02T07:12:06.127Z,6.87
2018-11-02T07:13:06.250Z,6.88
2018-11-02T07:14:06.082Z,6.89
2018-11-02T07:15:06.378Z,6.88
2018-11-02T07:16:06.121Z,6.89
2018-11-02T07:17:06.556Z,6.89
2018-11-02T07:18:06.103Z,6.89
2018-11-02T07:19:06.141Z,6.95
2018-11-02T07:20:06.162Z,6.97
2018-11-02T07:21:06.842Z,6.97
2018-11-02T07:22:06.018Z,6.96
2018-11-02T07:23:06.213Z,6.94
2018-11-02T07:24:06.341Z,6.97
2018-11-02T07:25:06.876Z,6.97
2018-11-02T07:26:06.213Z,6.98
2018-11-02T07:27:06.219Z,7.02
2018-11-02T07:28:06.053Z,6.99
2018-11-02T07:29:06.044Z,7.03
2018-11-02T07:30:06.029Z,7.02
2018-11-02T07:31:06.067Z,7.04
2018-11-02T07:32:07.883Z,7.05
2018-11-02T07:33:06.175Z,7.12
2018-11-02T07:34:06.576Z,7.11
2018-11-02T07:35:06.098Z,7.15
2018-11-02T07:36:06.106Z,7.16
2018-11-02T07:37:07.010Z,7.19
2018-11-02T07:38:06.174Z,7.2
2018-11-02T07:39:06.049Z,7.19
2018-11-02T07:40:06.100Z,7.2
2018-11-02T07:41:06.066Z,7.25
2018-11-02T07:42:07.429Z,7.24
2018-11-02T07:43:06.218Z,7.2
2018-11-02T07:44:06.128Z,7.26
2018-11-02T07:45:06.028Z,7.29
2018-11-02T07:46:06.146Z,7.31
2018-11-02T07:47:06.049Z,7.31
2018-11-02T07:48:05.959Z,7.33
2018-11-02T07:49:06.228Z,7.33
2018-11-02T07:50:06.047Z,7.35
2018-11-02T07:51:06.130Z,7.33
2018-11-02T07:52:06.108Z,7.3
2018-11-02T07:53:06.316Z,7.35
2018-11-02T07:54:06.123Z,7.41
2018-11-02T07:55:06.233Z,7.4
2018-11-02T07:56:06.117Z,7.39
2018-11-02T07:57:06.098Z,7.45
2018-11-02T07:58:06.092Z,7.46
2018-11-02T07:59:06.290Z,7.48
2018-11-02T08:00:06.237Z,7.52
2018-11-02T08:01:06.147Z,7.55
2018-11-02T08:02:06.076Z,7.57
2018-11-02T08:03:07.893Z,7.58
2018-11-02T08:04:06.250Z,7.61
2018-11-02T08:05:06.053Z,7.62
2018-11-02T08:06:06.092Z,7.64
2018-11-02T08:07:06.115Z,7.65
2018-11-02T08:08:06.099Z,7.63
2018-11-02T08:09:06.092Z,7.63
2018-11-02T08:10:06.199Z,7.65
2018-11-02T08:11:06.076Z,7.65
2018-11-02T08:12:06.031Z,7.66
2018-11-02T08:13:07.455Z,7.71
2018-11-02T08:14:06.199Z,7.69
2018-11-02T08:15:06.034Z,7.77
2018-11-02T08:16:05.927Z,7.78
2018-11-02T08:17:05.934Z,7.78
2018-11-02T08:18:06.008Z,7.79
2018-11-02T08:19:07.677Z,7.8
2018-11-02T08:20:06.146Z,7.77
2018-11-02T08:21:06.186Z,7.79
2018-11-02T08:22:05.997Z,7.78
2018-11-02T08:23:06.161Z,7.82
2018-11-02T08:24:05.996Z,7.83
2018-11-02T08:25:05.904Z,7.84
2018-11-02T08:26:06.038Z,7.81
2018-11-02T08:27:06.021Z,7.82
2018-11-02T08:28:06.103Z,7.83
2018-11-02T08:29:06.277Z,7.87
2018-11-02T08:30:06.111Z,7.86
2018-11-02T08:31:06.116Z,7.9
2018-11-02T08:32:06.666Z,7.88
2018-11-02T08:33:05.921Z,7.89
2018-11-02T08:34:05.935Z,7.88
2018-11-02T08:35:05.976Z,7.9
2018-11-02T08:36:05.928Z,7.88
2018-11-02T08:37:06.191Z,7.87
2018-11-02T08:38:06.158Z,7.92
2018-11-02T08:39:05.997Z,7.93
2018-11-02T08:40:06.184Z,7.96
2018-11-02T08:41:06.010Z,7.96
2018-11-02T08:42:05.891Z,7.95
2018-11-02T08:43:06.109Z,7.96
2018-11-02T08:44:06.057Z,7.97
2018-11-02T08:45:06.042Z,8.02
2018-11-02T08:46:06.225Z,8.04
2018-11-02T08:47:06.001Z,8.06
2018-11-02T08:48:06.147Z,8.06
2018-11-02T08:49:05.974Z,8.08
2018-11-02T08:50:06.149Z,8.07
2018-11-02T08:51:05.959Z,8.09
2018-11-02T08:52:06.250Z,8.08
2018-11-02T08:53:05.930Z,8.1
2018-11-02T08:54:05.949Z,8.13
2018-11-02T08:55:06.504Z,8.1
2018-11-02T08:56:05.996Z,8.1
2018-11-02T08:57:06.242Z,8.15
2018-11-02T08:58:08.993Z,8.16
2018-11-02T08:59:07.021Z,8.18
2018-11-02T09:00:06.600Z,8.11
2018-11-02T09:01:06.130Z,8.11
2018-11-02T09:02:06.727Z,8.09
2018-11-02T09:03:06.150Z,8.11
2018-11-02T09:04:06.174Z,8.17
2018-11-02T09:05:06.759Z,8.18
2018-11-02T09:06:06.173Z,8.2
2018-11-02T09:07:06.023Z,8.18
2018-11-02T09:08:05.894Z,8.19
2018-11-02T09:09:06.022Z,8.18
2018-11-02T09:10:06.109Z,8.23
2018-11-02T09:11:05.848Z,8.23
2018-11-02T09:12:06.673Z,8.17
2018-11-02T09:13:06.414Z,8.1
2018-11-02T09:14:05.869Z,8.07
2018-11-02T09:15:06.212Z,8.11
2018-11-02T09:16:05.971Z,8.15
2018-11-02T09:17:06.016Z,8.16
2018-11-02T09:18:05.894Z,8.25
2018-11-02T09:19:06.070Z,8.19
2018-11-02T09:20:05.914Z,8.21
2018-11-02T09:21:05.920Z,8.27
2018-11-02T09:22:06.007Z,8.28
2018-11-02T09:23:06.151Z,8.29
2018-11-02T09:24:06.031Z,8.28
2018-11-02T09:25:05.869Z,8.31
2018-11-02T09:26:06.157Z,8.3
2018-11-02T09:27:06.321Z,8.3
2018-11-02T09:28:07.811Z,8.3
2018-11-02T09:29:06.132Z,8.3
2018-11-02T09:30:05.995Z,8.28
2018-11-02T09:31:05.903Z,8.29
2018-11-02T09:32:05.841Z,8.29
2018-11-02T09:33:05.867Z,8.3
2018-11-02T09:34:06.158Z,8.28
2018-11-02T09:35:06.303Z,8.3
2018-11-02T09:36:05.842Z,8.31
2018-11-02T09:37:05.905Z,8.35
2018-11-02T09:38:05.949Z,8.33
2018-11-02T09:39:06.247Z,8.31
2018-11-02T09:40:06.122Z,8.23
2018-11-02T09:41:05.928Z,8.21
2018-11-02T09:42:07.579Z,8.27
2018-11-02T09:43:06.372Z,8.3
2018-11-02T09:44:06.067Z,8.19
2018-11-02T09:45:05.861Z,8.11
2018-11-02T09:46:05.902Z,8.1
2018-11-02T09:47:06.243Z,8.11
2018-11-02T09:48:06.112Z,8.19
2018-11-02T09:49:05.928Z,8.21
2018-11-02T09:50:05.901Z,8.16
2018-11-02T09:51:05.883Z,8.15
2018-11-02T09:52:08.344Z,8.18
2018-11-02T09:53:05.855Z,8.25
2018-11-02T09:54:05.924Z,8.12
2018-11-02T09:55:05.852Z,8.23
2018-11-02T09:56:05.892Z,8.19
2018-11-02T09:57:06.251Z,8.22
2018-11-02T09:58:06.181Z,8.05
2018-11-02T09:59:06.196Z,8.03
2018-11-02T10:00:06.004Z,8.06
2018-11-02T10:01:05.866Z,8.22
2018-11-02T10:02:07.927Z,8.24
2018-11-02T10:03:05.809Z,8.27
2018-11-02T10:04:05.892Z,8.27
2018-11-02T10:05:05.910Z,8.25
2018-11-02T10:06:05.978Z,8.2
2018-11-02T10:07:05.881Z,8.15
2018-11-02T10:08:06.166Z,8.17
2018-11-02T10:09:06.579Z,8.19
2018-11-02T10:10:06.209Z,8.22
2018-11-02T10:11:05.823Z,8.23
2018-11-02T10:12:07.594Z,8.33
2018-11-02T10:13:06.246Z,8.26
2018-11-02T10:14:06.214Z,8.25
2018-11-02T10:15:06.185Z,8.25
2018-11-02T10:16:05.915Z,8.06
2018-11-02T10:17:05.921Z,8.06
2018-11-02T10:18:05.913Z,8.12
2018-11-02T10:19:05.897Z,8.19
2018-11-02T10:20:05.959Z,8.27
2018-11-02T10:21:05.881Z,8.32
2018-11-02T10:22:07.660Z,8.32
2018-11-02T10:23:05.957Z,8.18
2018-11-02T10:24:05.932Z,8.17
2018-11-02T10:25:05.922Z,8.23
2018-11-02T10:26:06.147Z,8.25
2018-11-02T10:27:05.901Z,8.14
2018-11-02T10:28:06.217Z,8.12
2018-11-02T10:29:06.001Z,8.2
2018-11-02T10:30:05.814Z,8.2
2018-11-02T10:31:05.846Z,8.29
2018-11-02T10:32:07.238Z,8.2
2018-11-02T10:33:06.307Z,8.3
2018-11-02T10:34:05.951Z,8.32
2018-11-02T10:35:05.918Z,8.31
2018-11-02T10:36:06.636Z,8.28
2018-11-02T10:37:05.850Z,8.28
2018-11-02T10:38:06.074Z,8.32
2018-11-02T10:39:05.821Z,8.37
2018-11-02T10:40:05.845Z,8.39
2018-11-02T10:41:05.787Z,8.16
2018-11-02T10:42:07.088Z,8.01
2018-11-02T10:43:05.860Z,7.96
2018-11-02T10:44:06.141Z,7.97
2018-11-02T10:45:07.054Z,7.93
2018-11-02T10:46:05.887Z,8.04
2018-11-02T10:47:05.788Z,8.1
2018-11-02T10:48:05.856Z,8.05
2018-11-02T10:49:06.143Z,8.08
2018-11-02T10:50:05.812Z,8.13
2018-11-02T10:51:06.120Z,8.03
2018-11-02T10:52:07.776Z,7.92
2018-11-02T10:53:05.797Z,8.01
2018-11-02T10:54:05.905Z,8.13
2018-11-02T10:55:05.787Z,8.13
2018-11-02T10:56:05.879Z,8.08
2018-11-02T10:57:05.892Z,8.14
2018-11-02T10:58:05.969Z,8.23
2018-11-02T10:59:05.816Z,8.23
2018-11-02T11:00:05.791Z,8.3
2018-11-02T11:01:08.105Z,8.33
2018-11-02T11:02:07.743Z,8.34
2018-11-02T11:03:05.929Z,8.37
2018-11-02T11:04:05.811Z,8.32
2018-11-02T11:05:05.759Z,8.27
2018-11-02T11:06:05.798Z,8.22
2018-11-02T11:07:05.782Z,8.19
2018-11-02T11:08:06.247Z,8.26
2018-11-02T11:09:05.748Z,8.11
2018-11-02T11:10:05.767Z,8.22
2018-11-02T11:11:08.165Z,8.26
2018-11-02T11:12:08.298Z,8.3
2018-11-02T11:13:10.165Z,8.21
2018-11-02T11:14:05.935Z,8.29
2018-11-02T11:15:05.731Z,8.16
2018-11-02T11:16:05.766Z,8.27
2018-11-02T11:17:06.182Z,8.31
2018-11-02T11:18:05.814Z,8.18
2018-11-02T11:19:05.787Z,8.18
2018-11-02T11:20:06.197Z,8.3
2018-11-02T11:21:06.269Z,8.2
2018-11-02T11:22:07.580Z,8.11
2018-11-02T11:23:05.781Z,8.06
2018-11-02T11:24:05.853Z,7.99
2018-11-02T11:25:05.757Z,8.02
2018-11-02T11:26:05.962Z,8.09
2018-11-02T11:27:05.822Z,8.16
2018-11-02T11:28:05.820Z,8.2
2018-11-02T11:29:06.159Z,8.13
2018-11-02T11:30:05.788Z,8.14
2018-11-02T11:31:06.007Z,8.18
2018-11-02T11:32:07.759Z,8.07
2018-11-02T11:33:05.836Z,8.15
2018-11-02T11:34:05.997Z,8.19
2018-11-02T11:35:05.849Z,8
2018-11-02T11:36:05.828Z,8.11
2018-11-02T11:37:05.759Z,8.16
2018-11-02T11:38:05.822Z,8.26
2018-11-02T11:39:05.786Z,8.16
2018-11-02T11:40:05.892Z,8.22
2018-11-02T11:41:05.872Z,8.24
2018-11-02T11:42:05.801Z,8.15
2018-11-02T11:43:05.808Z,8.17
2018-11-02T11:44:05.767Z,8.1
2018-11-02T11:45:05.845Z,7.96
2018-11-02T11:46:05.870Z,8.02
2018-11-02T11:47:05.938Z,8.1
2018-11-02T11:48:06.100Z,8.17
2018-11-02T11:49:07.098Z,8.09
2018-11-02T11:50:05.837Z,8.11
2018-11-02T11:51:05.689Z,8.07
2018-11-02T11:52:05.751Z,8.1
2018-11-02T11:53:05.906Z,7.99
2018-11-02T11:54:05.873Z,7.99
2018-11-02T11:55:05.824Z,7.76
2018-11-02T11:56:05.721Z,7.9
2018-11-02T11:57:05.800Z,7.99
2018-11-02T11:58:05.917Z,8.17
2018-11-02T11:59:05.753Z,8.09
2018-11-02T12:00:05.776Z,8.07
2018-11-02T12:01:06.115Z,8.15
2018-11-02T12:02:06.405Z,8.08
2018-11-02T12:03:05.754Z,8.14
2018-11-02T12:04:05.949Z,8.17
2018-11-02T12:05:06.826Z,8.11
2018-11-02T12:06:05.783Z,8.13
2018-11-02T12:07:05.652Z,8.16
2018-11-02T12:08:05.729Z,8.2
2018-11-02T12:09:06.222Z,8.22
2018-11-02T12:10:06.046Z,8.16
2018-11-02T12:11:05.721Z,8.25
2018-11-02T12:12:05.684Z,8.21
2018-11-02T12:13:06.040Z,8.23
2018-11-02T12:14:05.766Z,8.09
2018-11-02T12:15:05.648Z,8.01
2018-11-02T12:16:07.294Z,7.97
2018-11-02T12:17:05.653Z,8.05
2018-11-02T12:18:05.655Z,8.13
2018-11-02T12:19:05.662Z,8.12
2018-11-02T12:20:05.698Z,8.19
2018-11-02T12:21:05.741Z,8.24
2018-11-02T12:22:05.986Z,8.23
2018-11-02T12:23:05.953Z,8.23
2018-11-02T12:24:05.718Z,8.17
2018-11-02T12:25:05.620Z,8.07
2018-11-02T12:26:05.743Z,8.11
2018-11-02T12:27:05.699Z,8.07
2018-11-02T12:28:06.277Z,8.14
2018-11-02T12:29:06.037Z,8.07
2018-11-02T12:30:05.745Z,7.71
2018-11-02T12:31:05.659Z,7.55
2018-11-02T12:32:07.264Z,7.58
2018-11-02T12:33:05.707Z,7.62
2018-11-02T12:34:05.649Z,7.7
2018-11-02T12:35:05.710Z,7.78
2018-11-02T12:36:05.667Z,7.85
2018-11-02T12:37:06.439Z,7.97
2018-11-02T12:38:05.775Z,7.92
2018-11-02T12:39:05.914Z,7.95
2018-11-02T12:40:05.775Z,7.95
2018-11-02T12:41:05.669Z,7.92
2018-11-02T12:42:07.437Z,7.95
2018-11-02T12:43:06.018Z,8.04
2018-11-02T12:44:05.847Z,7.95
2018-11-02T12:45:06.100Z,7.98
2018-11-02T12:46:05.904Z,7.99
2018-11-02T12:47:05.626Z,8.05
2018-11-02T12:48:07.585Z,8.16
2018-11-02T12:49:09.012Z,8.16
2018-11-02T12:50:06.505Z,8.31
2018-11-02T12:51:05.607Z,8.31
2018-11-02T12:52:07.403Z,8.25
2018-11-02T12:53:05.691Z,8.29
2018-11-02T12:54:05.824Z,8.3
2018-11-02T12:55:05.595Z,8.38
2018-11-02T12:56:05.630Z,8.36
2018-11-02T12:57:05.751Z,8.35
2018-11-02T12:58:05.614Z,8.31
2018-11-02T12:59:05.684Z,8.31
2018-11-02T13:00:05.604Z,8.33
2018-11-02T13:01:05.758Z,8.4
2018-11-02T13:02:05.965Z,8.37
2018-11-02T13:03:05.598Z,8.3
2018-11-02T13:04:05.608Z,8.38
2018-11-02T13:05:05.961Z,8.29
2018-11-02T13:06:05.757Z,8.24
2018-11-02T13:07:06.034Z,8.1
2018-11-02T13:08:05.660Z,7.95
2018-11-02T13:09:05.606Z,8.05
2018-11-02T13:10:05.656Z,8
2018-11-02T13:11:05.592Z,8.08
2018-11-02T13:12:05.879Z,8.05
2018-11-02T13:13:05.784Z,8.04
2018-11-02T13:14:05.569Z,7.91
2018-11-02T13:15:05.884Z,7.83
2018-11-02T13:16:06.355Z,7.9
2018-11-02T13:17:05.630Z,7.84
2018-11-02T13:18:05.985Z,7.88
2018-11-02T13:19:05.696Z,7.84
2018-11-02T13:20:06.556Z,7.81
2018-11-02T13:21:05.734Z,7.83
2018-11-02T13:22:06.191Z,7.88
2018-11-02T13:23:07.612Z,7.79